createdAt,value
2016-05-17T00:00:38.859Z,0
2016-05-17T00:01:38.722Z,0
2016-05-17T00:02:38.475Z,0
2016-05-17T00:03:38.930Z,0
2016-05-17T00:04:38.839Z,0
2016-05-17T00:05:38.857Z,0
2016-05-17T00:06:39.688Z,0
2016-05-17T00:07:38.925Z,0
2016-05-17T00:08:39.115Z,0
2016-05-17T00:09:38.993Z,0
2016-05-17T00:10:39.183Z,0
2016-05-17T00:11:39.077Z,0
2016-05-17T00:12:39.095Z,0
2016-05-17T00:13:39.269Z,0
2016-05-17T00:14:39.163Z,0
2016-05-17T00:15:39.337Z,0
2016-05-17T00:16:39.215Z,0
2016-05-17T00:17:39.249Z,0
2016-05-17T00:18:39.423Z,0
2016-05-17T00:19:39.442Z,0
2016-05-17T00:20:39.507Z,0
2016-05-17T00:21:39.901Z,0
2016-05-17T00:22:39.560Z,0
2016-05-17T00:23:39.452Z,0
2016-05-17T00:24:39.612Z,0
2016-05-17T00:25:39.661Z,0
2016-05-17T00:26:39.679Z,0
2016-05-17T00:27:39.588Z,0
2016-05-17T00:28:39.607Z,0
2016-05-17T00:29:39.797Z,0
2016-05-17T00:30:39.518Z,0
2016-05-17T00:31:39.833Z,0
2016-05-17T00:32:39.743Z,0
2016-05-17T00:33:39.761Z,0
2016-05-17T00:34:39.794Z,0
2016-05-17T00:35:39.813Z,0
2016-05-17T00:36:40.050Z,0
2016-05-17T00:37:40.053Z,0
2016-05-17T00:38:39.759Z,0
2016-05-17T00:39:40.105Z,0
2016-05-17T00:40:40.139Z,0
2016-05-17T00:41:40.157Z,0
2016-05-17T00:42:40.191Z,0
2016-05-17T00:43:40.069Z,0
2016-05-17T00:44:39.963Z,0
2016-05-17T00:45:40.294Z,0
2016-05-17T00:46:40.327Z,0
2016-05-17T00:47:40.205Z,0
2016-05-17T00:48:40.380Z,0
2016-05-17T00:49:40.257Z,0
2016-05-17T00:50:40.290Z,0
2016-05-17T00:51:40.496Z,0
2016-05-17T00:52:40.515Z,0
2016-05-17T00:53:40.237Z,0
2016-05-17T00:54:40.567Z,0
2016-05-17T00:55:40.304Z,0
2016-05-17T00:56:40.479Z,0
2016-05-17T00:57:40.200Z,0
2016-05-17T00:58:40.718Z,0
2016-05-17T00:59:40.737Z,0
2016-05-17T01:00:40.443Z,0
2016-05-17T01:01:40.805Z,0
2016-05-17T01:02:40.823Z,0
2016-05-17T01:03:40.857Z,0
2016-05-17T01:04:40.891Z,0
2016-05-17T01:05:40.769Z,0
2016-05-17T01:06:41.177Z,0
2016-05-17T01:07:40.837Z,0
2016-05-17T01:08:41.011Z,0
2016-05-17T01:09:41.061Z,0
2016-05-17T01:10:40.783Z,0
2016-05-17T01:11:41.113Z,0
2016-05-17T01:12:40.991Z,0
2016-05-17T01:13:41.009Z,0
2016-05-17T01:14:41.058Z,0
2016-05-17T01:15:41.233Z,0
2016-05-17T01:16:41.267Z,0
2016-05-17T01:17:41.161Z,0
2016-05-17T01:18:41.179Z,0
2016-05-17T01:19:41.369Z,0
2016-05-17T01:20:41.247Z,0
2016-05-17T01:21:42.171Z,0
2016-05-17T01:22:41.471Z,0
2016-05-17T01:23:41.348Z,0
2016-05-17T01:24:41.382Z,0
2016-05-17T01:25:41.260Z,0
2016-05-17T01:26:41.591Z,0
2016-05-17T01:27:41.624Z,0
2016-05-17T01:28:41.502Z,0
2016-05-17T01:29:41.692Z,0
2016-05-17T01:30:41.711Z,0
2016-05-17T01:31:41.589Z,0
2016-05-17T01:32:41.794Z,0
2016-05-17T01:33:41.813Z,0
2016-05-17T01:34:41.847Z,0
2016-05-17T01:35:41.881Z,0
2016-05-17T01:36:41.790Z,0
2016-05-17T01:37:41.792Z,0
2016-05-17T01:38:41.826Z,0
2016-05-17T01:39:42.000Z,0
2016-05-17T01:40:42.034Z,0
2016-05-17T01:41:42.053Z,0
2016-05-17T01:42:42.087Z,0
2016-05-17T01:43:41.980Z,0
2016-05-17T01:44:42.186Z,0
2016-05-17T01:45:42.188Z,0
2016-05-17T01:46:42.082Z,0
2016-05-17T01:47:42.100Z,0
2016-05-17T01:48:42.134Z,0
2016-05-17T01:49:42.153Z,0
2016-05-17T01:50:42.061Z,0
2016-05-17T01:51:42.861Z,0
2016-05-17T01:52:42.255Z,0
2016-05-17T01:53:42.288Z,0
2016-05-17T01:54:42.479Z,0
2016-05-17T01:55:42.496Z,0
2016-05-17T01:56:42.546Z,0
2016-05-17T01:57:42.424Z,0
2016-05-17T01:58:42.443Z,0
2016-05-17T01:59:42.632Z,0
2016-05-17T02:00:42.698Z,0
2016-05-17T02:01:42.701Z,0
2016-05-17T02:02:42.578Z,0
2016-05-17T02:03:42.768Z,0
2016-05-17T02:04:42.802Z,0
2016-05-17T02:05:42.665Z,0
2016-05-17T02:06:43.417Z,0
2016-05-17T02:07:42.904Z,0
2016-05-17T02:08:42.907Z,0
2016-05-17T02:09:42.972Z,0
2016-05-17T02:10:42.819Z,0
2016-05-17T02:11:42.868Z,0
2016-05-17T02:12:43.042Z,0
2016-05-17T02:13:43.092Z,0
2016-05-17T02:14:42.970Z,0
2016-05-17T02:15:42.988Z,0
2016-05-17T02:16:43.178Z,0
2016-05-17T02:17:43.197Z,0
2016-05-17T02:18:43.230Z,0
2016-05-17T02:19:43.109Z,0
2016-05-17T02:20:43.298Z,0
2016-05-17T02:21:43.207Z,0
2016-05-17T02:22:43.054Z,0
2016-05-17T02:23:43.244Z,0
2016-05-17T02:24:43.419Z,0
2016-05-17T02:25:43.452Z,0
2016-05-17T02:26:43.487Z,0
2016-05-17T02:27:43.521Z,0
2016-05-17T02:28:43.398Z,0
2016-05-17T02:29:43.432Z,0
2016-05-17T02:30:43.623Z,0
2016-05-17T02:31:43.485Z,0
2016-05-17T02:32:43.612Z,0
2016-05-17T02:33:43.412Z,0
2016-05-17T02:34:43.633Z,0
2016-05-17T02:35:43.714Z,0
2016-05-17T02:36:44.372Z,0
2016-05-17T02:37:43.876Z,0
2016-05-17T02:38:43.815Z,0
2016-05-17T02:39:43.959Z,0
2016-05-17T02:40:43.837Z,0
2016-05-17T02:41:43.698Z,0
2016-05-17T02:42:43.998Z,0
2016-05-17T02:43:44.032Z,0
2016-05-17T02:44:43.894Z,0
2016-05-17T02:45:44.116Z,0
2016-05-17T02:46:44.103Z,0
2016-05-17T02:47:44.012Z,0
2016-05-17T02:48:44.186Z,0
2016-05-17T02:49:44.204Z,0
2016-05-17T02:50:44.238Z,0
2016-05-17T02:51:44.445Z,0
2016-05-17T02:52:44.307Z,0
2016-05-17T02:53:44.341Z,0
2016-05-17T02:54:44.374Z,0
2016-05-17T02:55:44.111Z,0
2016-05-17T02:56:44.443Z,0
2016-05-17T02:57:44.320Z,0
2016-05-17T02:58:44.494Z,0
2016-05-17T02:59:44.529Z,0
2016-05-17T03:00:44.407Z,0
2016-05-17T03:01:44.424Z,0
2016-05-17T03:02:44.318Z,0
2016-05-17T03:03:44.492Z,0
2016-05-17T03:04:44.698Z,0
2016-05-17T03:05:44.732Z,0
2016-05-17T03:06:44.656Z,0
2016-05-17T03:07:44.800Z,0
2016-05-17T03:08:44.803Z,0
2016-05-17T03:09:44.852Z,0
2016-05-17T03:10:44.870Z,0
2016-05-17T03:11:44.904Z,0
2016-05-17T03:12:44.626Z,0
2016-05-17T03:13:44.972Z,0
2016-05-17T03:14:45.006Z,0
2016-05-17T03:15:45.039Z,0
2016-05-17T03:16:44.903Z,0
2016-05-17T03:17:45.092Z,0
2016-05-17T03:18:45.127Z,0
2016-05-17T03:19:44.989Z,0
2016-05-17T03:20:45.194Z,0
2016-05-17T03:21:45.321Z,0
2016-05-17T03:22:45.246Z,0
2016-05-17T03:23:45.280Z,0
2016-05-17T03:24:45.471Z,0
2016-05-17T03:25:45.348Z,0
2016-05-17T03:26:45.429Z,0
2016-05-17T03:27:45.416Z,0
2016-05-17T03:28:45.466Z,0
2016-05-17T03:29:45.921Z,0
2016-05-17T03:30:45.502Z,0
2016-05-17T03:31:45.379Z,0
2016-05-17T03:32:45.430Z,0
2016-05-17T03:33:45.449Z,0
2016-05-17T03:34:45.654Z,0
2016-05-17T03:35:45.516Z,0
2016-05-17T03:36:46.159Z,0
2016-05-17T03:37:45.740Z,0
2016-05-17T03:38:45.758Z,0
2016-05-17T03:39:45.793Z,0
2016-05-17T03:40:45.670Z,0
2016-05-17T03:41:45.548Z,0
2016-05-17T03:42:45.878Z,0
2016-05-17T03:43:45.912Z,0
2016-05-17T03:44:45.962Z,0
2016-05-17T03:45:45.824Z,0
2016-05-17T03:46:46.014Z,0
2016-05-17T03:47:46.047Z,0
2016-05-17T03:48:46.067Z,0
2016-05-17T03:49:45.819Z,0
2016-05-17T03:50:46.149Z,0
2016-05-17T03:51:46.028Z,0
2016-05-17T03:52:46.202Z,0
2016-05-17T03:53:46.236Z,0
2016-05-17T03:54:46.269Z,0
2016-05-17T03:55:46.163Z,5
2016-05-17T03:56:46.338Z,5
2016-05-17T03:57:46.372Z,5
2016-05-17T03:58:46.405Z,5
2016-05-17T03:59:46.440Z,5
2016-05-17T04:00:46.333Z,5
2016-05-17T04:01:46.492Z,5
2016-05-17T04:02:46.370Z,5
2016-05-17T04:03:46.559Z,5
2016-05-17T04:04:46.610Z,5
2016-05-17T04:05:46.457Z,5
2016-05-17T04:06:47.412Z,5
2016-05-17T04:07:46.680Z,10
2016-05-17T04:08:46.557Z,10
2016-05-17T04:09:46.748Z,10
2016-05-17T04:10:46.625Z,10
2016-05-17T04:11:46.800Z,10
2016-05-17T04:12:46.678Z,10
2016-05-17T04:13:46.868Z,10
2016-05-17T04:14:46.745Z,10
2016-05-17T04:15:46.780Z,10
2016-05-17T04:16:46.814Z,10
2016-05-17T04:17:47.019Z,10
2016-05-17T04:18:47.022Z,10
2016-05-17T04:19:46.743Z,10
2016-05-17T04:20:47.106Z,10
2016-05-17T04:21:47.328Z,10
2016-05-17T04:22:47.205Z,10
2016-05-17T04:23:47.223Z,10
2016-05-17T04:24:46.913Z,15
2016-05-17T04:25:47.119Z,15
2016-05-17T04:26:47.293Z,15
2016-05-17T04:27:47.312Z,15
2016-05-17T04:28:47.221Z,20
2016-05-17T04:29:47.224Z,20
2016-05-17T04:30:47.257Z,20
2016-05-17T04:31:47.448Z,20
2016-05-17T04:32:47.497Z,20
2016-05-17T04:33:47.359Z,20
2016-05-17T04:34:47.534Z,20
2016-05-17T04:35:47.551Z,20
2016-05-17T04:36:48.758Z,20
2016-05-17T04:37:47.636Z,20
2016-05-17T04:38:47.513Z,25
2016-05-17T04:39:47.704Z,25
2016-05-17T04:40:47.581Z,25
2016-05-17T04:41:47.756Z,25
2016-05-17T04:42:47.789Z,25
2016-05-17T04:43:47.683Z,25
2016-05-17T04:44:47.858Z,30
2016-05-17T04:45:47.892Z,30
2016-05-17T04:46:47.926Z,30
2016-05-17T04:47:47.959Z,30
2016-05-17T04:48:47.978Z,30
2016-05-17T04:49:48.027Z,35
2016-05-17T04:50:48.061Z,35
2016-05-17T04:51:48.313Z,40
2016-05-17T04:52:48.114Z,40
2016-05-17T04:53:47.992Z,40
2016-05-17T04:54:48.025Z,40
2016-05-17T04:55:48.216Z,40
2016-05-17T04:56:48.233Z,35
2016-05-17T04:57:48.127Z,30
2016-05-17T04:58:48.302Z,30
2016-05-17T04:59:48.366Z,25
2016-05-17T05:00:48.072Z,30
2016-05-17T05:01:48.247Z,35
2016-05-17T05:02:48.438Z,35
2016-05-17T05:03:48.471Z,40
2016-05-17T05:04:48.333Z,50
2016-05-17T05:05:48.367Z,55
2016-05-17T05:06:48.510Z,50
2016-05-17T05:07:48.590Z,50
2016-05-17T05:08:48.625Z,50
2016-05-17T05:09:48.681Z,45
2016-05-17T05:10:48.757Z,50
2016-05-17T05:11:48.819Z,45
2016-05-17T05:12:48.739Z,45
2016-05-17T05:13:48.832Z,45
2016-05-17T05:14:48.879Z,40
2016-05-17T05:15:48.772Z,40
2016-05-17T05:16:48.994Z,40
2016-05-17T05:17:49.183Z,35
2016-05-17T05:18:49.218Z,40
2016-05-17T05:19:49.122Z,40
2016-05-17T05:20:49.301Z,40
2016-05-17T05:21:49.356Z,40
2016-05-17T05:22:49.380Z,40
2016-05-17T05:23:49.262Z,45
2016-05-17T05:24:49.285Z,50
2016-05-17T05:25:49.493Z,50
2016-05-17T05:26:49.232Z,50
2016-05-17T05:27:49.408Z,55
2016-05-17T05:28:49.444Z,60
2016-05-17T05:29:49.636Z,60
2016-05-17T05:30:49.654Z,60
2016-05-17T05:31:49.689Z,60
2016-05-17T05:32:49.599Z,65
2016-05-17T05:33:49.759Z,65
2016-05-17T05:34:49.652Z,70
2016-05-17T05:35:49.812Z,70
2016-05-17T05:36:49.893Z,65
2016-05-17T05:37:49.724Z,65
2016-05-17T05:38:49.758Z,60
2016-05-17T05:39:49.777Z,60
2016-05-17T05:40:49.982Z,65
2016-05-17T05:41:49.688Z,60
2016-05-17T05:42:50.035Z,60
2016-05-17T05:43:50.101Z,60
2016-05-17T05:44:49.946Z,60
2016-05-17T05:45:50.137Z,60
2016-05-17T05:46:50.187Z,60
2016-05-17T05:47:50.204Z,60
2016-05-17T05:48:50.255Z,65
2016-05-17T05:49:50.506Z,65
2016-05-17T05:50:50.181Z,75
2016-05-17T05:51:50.340Z,80
2016-05-17T05:52:50.375Z,80
2016-05-17T05:53:50.409Z,75
2016-05-17T05:54:50.287Z,75
2016-05-17T05:55:50.461Z,75
2016-05-17T05:56:50.182Z,80
2016-05-17T05:57:50.404Z,85
2016-05-17T05:58:50.406Z,85
2016-05-17T05:59:50.440Z,90
2016-05-17T06:00:50.475Z,90
2016-05-17T06:01:50.664Z,95
2016-05-17T06:02:50.698Z,100
2016-05-17T06:03:50.733Z,105
2016-05-17T06:04:50.610Z,110
2016-05-17T06:05:50.628Z,105
2016-05-17T06:06:51.412Z,105
2016-05-17T06:07:50.868Z,120
2016-05-17T06:08:50.589Z,120
2016-05-17T06:09:50.749Z,115
2016-05-17T06:10:50.954Z,110
2016-05-17T06:11:50.816Z,115
2016-05-17T06:12:51.006Z,105
2016-05-17T06:13:51.056Z,100
2016-05-17T06:14:51.090Z,100
2016-05-17T06:15:51.108Z,100
2016-05-17T06:16:52.173Z,100
2016-05-17T06:17:51.176Z,95
2016-05-17T06:18:51.070Z,95
2016-05-17T06:19:51.243Z,100
2016-05-17T06:20:51.122Z,90
2016-05-17T06:21:51.015Z,85
2016-05-17T06:22:51.345Z,80
2016-05-17T06:23:51.364Z,70
2016-05-17T06:24:51.492Z,60
2016-05-17T06:25:51.292Z,60
2016-05-17T06:26:51.498Z,60
2016-05-17T06:27:51.501Z,65
2016-05-17T06:28:51.549Z,60
2016-05-17T06:29:51.568Z,60
2016-05-17T06:30:51.602Z,65
2016-05-17T06:31:51.651Z,65
2016-05-17T06:32:51.654Z,65
2016-05-17T06:33:51.407Z,70
2016-05-17T06:34:51.597Z,75
2016-05-17T06:35:51.444Z,80
2016-05-17T06:36:51.556Z,85
2016-05-17T06:37:51.839Z,90
2016-05-17T06:38:51.858Z,95
2016-05-17T06:39:51.751Z,105
2016-05-17T06:40:51.941Z,110
2016-05-17T06:41:51.960Z,120
2016-05-17T06:42:51.838Z,120
2016-05-17T06:43:52.043Z,120
2016-05-17T06:44:52.093Z,130
2016-05-17T06:45:52.096Z,140
2016-05-17T06:46:51.957Z,150
2016-05-17T06:47:51.991Z,170
2016-05-17T06:48:52.212Z,175
2016-05-17T06:49:52.215Z,170
2016-05-17T06:50:52.109Z,165
2016-05-17T06:51:52.596Z,150
2016-05-17T06:52:52.317Z,140
2016-05-17T06:53:52.351Z,150
2016-05-17T06:54:52.370Z,155
2016-05-17T06:55:52.262Z,145
2016-05-17T06:56:52.297Z,140
2016-05-17T06:57:52.470Z,140
2016-05-17T06:58:52.193Z,130
2016-05-17T06:59:52.398Z,130
2016-05-17T07:00:52.417Z,130
2016-05-17T07:01:52.606Z,130
2016-05-17T07:02:52.641Z,140
2016-05-17T07:03:52.534Z,155
2016-05-17T07:04:52.411Z,155
2016-05-17T07:05:52.742Z,155
2016-05-17T07:06:52.777Z,150
2016-05-17T07:07:52.686Z,145
2016-05-17T07:08:52.688Z,145
2016-05-17T07:09:52.722Z,150
2016-05-17T07:10:52.740Z,150
2016-05-17T07:11:52.946Z,165
2016-05-17T07:12:52.980Z,175
2016-05-17T07:13:53.014Z,205
2016-05-17T07:14:53.032Z,225
2016-05-17T07:15:52.910Z,200
2016-05-17T07:16:52.976Z,180
2016-05-17T07:17:53.150Z,165
2016-05-17T07:18:53.184Z,165
2016-05-17T07:19:53.202Z,175
2016-05-17T07:20:53.236Z,185
2016-05-17T07:21:53.379Z,195
2016-05-17T07:22:53.320Z,205
2016-05-17T07:23:53.025Z,210
2016-05-17T07:24:53.060Z,200
2016-05-17T07:25:53.406Z,185
2016-05-17T07:26:53.284Z,190
2016-05-17T07:27:53.334Z,195
2016-05-17T07:28:53.492Z,205
2016-05-17T07:29:53.542Z,210
2016-05-17T07:30:53.434Z,210
2016-05-17T07:31:53.594Z,220
2016-05-17T07:32:53.644Z,220
2016-05-17T07:33:53.678Z,220
2016-05-17T07:34:53.586Z,225
2016-05-17T07:35:53.730Z,235
2016-05-17T07:36:54.030Z,235
2016-05-17T07:37:53.797Z,225
2016-05-17T07:38:53.831Z,220
2016-05-17T07:39:53.725Z,220
2016-05-17T07:40:53.758Z,225
2016-05-17T07:41:53.949Z,225
2016-05-17T07:42:53.811Z,205
2016-05-17T07:43:54.016Z,170
2016-05-17T07:44:54.051Z,145
2016-05-17T07:45:54.068Z,130
2016-05-17T07:46:54.119Z,155
2016-05-17T07:47:54.138Z,185
2016-05-17T07:48:54.171Z,220
2016-05-17T07:49:54.252Z,250
2016-05-17T07:50:54.098Z,275
2016-05-17T07:51:54.304Z,285
2016-05-17T07:52:54.166Z,285
2016-05-17T07:53:54.184Z,270
2016-05-17T07:54:54.390Z,265
2016-05-17T07:55:54.267Z,265
2016-05-17T07:56:54.459Z,280
2016-05-17T07:57:54.492Z,275
2016-05-17T07:58:54.214Z,295
2016-05-17T07:59:54.560Z,335
2016-05-17T08:00:54.297Z,365
2016-05-17T08:01:54.628Z,365
2016-05-17T08:02:54.662Z,375
2016-05-17T08:03:54.383Z,420
2016-05-17T08:04:54.730Z,625
2016-05-17T08:05:54.450Z,435
2016-05-17T08:06:54.892Z,530
2016-05-17T08:07:54.816Z,445
2016-05-17T08:08:55.146Z,430
2016-05-17T08:09:54.744Z,415
2016-05-17T08:10:54.839Z,465
2016-05-17T08:11:54.655Z,420
2016-05-17T08:12:55.002Z,425
2016-05-17T08:13:55.035Z,455
2016-05-17T08:14:55.085Z,410
2016-05-17T08:15:55.134Z,455
2016-05-17T08:16:55.168Z,510
2016-05-17T08:17:55.202Z,575
2016-05-17T08:18:55.079Z,565
2016-05-17T08:19:55.098Z,545
2016-05-17T08:20:55.319Z,530
2016-05-17T08:21:54.868Z,540
2016-05-17T08:22:55.357Z,535
2016-05-17T08:23:55.109Z,530
2016-05-17T08:24:55.284Z,470
2016-05-17T08:25:55.473Z,470
2016-05-17T08:26:55.382Z,540
2016-05-17T08:27:55.573Z,535
2016-05-17T08:28:55.419Z,495
2016-05-17T08:29:55.468Z,465
2016-05-17T08:30:55.643Z,510
2016-05-17T08:31:55.693Z,590
2016-05-17T08:32:55.711Z,830
2016-05-17T08:33:55.776Z,575
2016-05-17T08:34:55.795Z,525
2016-05-17T08:35:55.517Z,490
2016-05-17T08:36:56.472Z,535
2016-05-17T08:37:55.912Z,650
2016-05-17T08:38:55.931Z,875
2016-05-17T08:39:55.824Z,675
2016-05-17T08:40:56.014Z,905
2016-05-17T08:41:56.048Z,575
2016-05-17T08:42:55.941Z,745
2016-05-17T08:43:55.960Z,595
2016-05-17T08:44:56.149Z,460
2016-05-17T08:45:56.199Z,395
2016-05-17T08:46:56.233Z,365
2016-05-17T08:47:56.283Z,345
2016-05-17T08:48:56.160Z,340
2016-05-17T08:49:56.351Z,375
2016-05-17T08:50:56.368Z,385
2016-05-17T08:51:56.231Z,410
2016-05-17T08:52:56.468Z,445
2016-05-17T08:53:56.190Z,460
2016-05-17T08:54:56.365Z,405
2016-05-17T08:55:56.413Z,365
2016-05-17T08:56:56.448Z,435
2016-05-17T08:57:56.498Z,565
2016-05-17T08:58:56.515Z,530
2016-05-17T08:59:56.409Z,500
2016-05-17T09:00:56.756Z,515
2016-05-17T09:01:56.804Z,595
2016-05-17T09:02:56.823Z,925
2016-05-17T09:03:56.856Z,630
2016-05-17T09:04:56.766Z,500
2016-05-17T09:05:56.956Z,555
2016-05-17T09:06:57.005Z,445
2016-05-17T09:07:56.867Z,475
2016-05-17T09:08:57.058Z,510
2016-05-17T09:09:56.936Z,480
2016-05-17T09:10:56.986Z,560
2016-05-17T09:11:57.175Z,555
2016-05-17T09:12:57.100Z,550
2016-05-17T09:13:56.915Z,550
2016-05-17T09:14:57.294Z,405
2016-05-17T09:15:57.311Z,280
2016-05-17T09:16:57.205Z,280
2016-05-17T09:17:57.394Z,305
2016-05-17T09:18:57.444Z,335
2016-05-17T09:19:57.462Z,325
2016-05-17T09:20:57.512Z,340
2016-05-17T09:21:57.937Z,345
2016-05-17T09:22:57.580Z,310
2016-05-17T09:23:57.630Z,285
2016-05-17T09:24:57.663Z,290
2016-05-17T09:25:57.541Z,250
2016-05-17T09:26:57.747Z,215
2016-05-17T09:27:57.765Z,235
2016-05-17T09:28:57.799Z,300
2016-05-17T09:29:57.693Z,335
2016-05-17T09:30:57.726Z,350
2016-05-17T09:31:57.620Z,350
2016-05-17T09:32:57.951Z,355
2016-05-17T09:33:57.860Z,340
2016-05-17T09:34:58.034Z,340
2016-05-17T09:35:57.912Z,325
2016-05-17T09:36:58.149Z,370
2016-05-17T09:37:58.151Z,400
2016-05-17T09:38:58.186Z,400
2016-05-17T09:39:57.907Z,405
2016-05-17T09:40:58.253Z,465
2016-05-17T09:41:58.287Z,645
2016-05-17T09:42:58.197Z,585
2016-05-17T09:43:58.230Z,950
2016-05-17T09:44:58.436Z,625
2016-05-17T09:45:58.454Z,495
2016-05-17T09:46:58.504Z,475
2016-05-17T09:47:58.366Z,585
2016-05-17T09:48:58.399Z,830
2016-05-17T09:49:58.433Z,1295
2016-05-17T09:50:58.608Z,970
2016-05-17T09:51:58.518Z,620
2016-05-17T09:52:58.708Z,1640
2016-05-17T09:53:58.414Z,1635
2016-05-17T09:54:58.618Z,1405
2016-05-17T09:55:58.669Z,1655
2016-05-17T09:56:58.860Z,1585
2016-05-17T09:57:58.565Z,1660
2016-05-17T09:58:58.771Z,1490
2016-05-17T09:59:58.960Z,1500
2016-05-17T10:00:58.995Z,1555
2016-05-17T10:01:58.732Z,1685
2016-05-17T10:02:58.937Z,1635
2016-05-17T10:03:59.128Z,1640
2016-05-17T10:04:59.162Z,1585
2016-05-17T10:05:59.211Z,1560
2016-05-17T10:06:59.229Z,1580
2016-05-17T10:07:59.279Z,1575
2016-05-17T10:08:59.329Z,1065
2016-05-17T10:09:59.362Z,1640
2016-05-17T10:10:59.256Z,1560
2016-05-17T10:11:59.289Z,1710
2016-05-17T10:12:59.184Z,1825
2016-05-17T10:13:59.530Z,1310
2016-05-17T10:14:59.580Z,1430
2016-05-17T10:15:59.614Z,1405
2016-05-17T10:16:59.663Z,435
2016-05-17T10:17:59.541Z,375
2016-05-17T10:18:59.747Z,435
2016-05-17T10:19:59.624Z,510
2016-05-17T10:20:59.705Z,555
2016-05-17T10:21:59.739Z,575
2016-05-17T10:22:59.913Z,765
2016-05-17T10:23:59.822Z,925
2016-05-17T10:24:59.996Z,620
2016-05-17T10:26:00.047Z,575
2016-05-17T10:26:59.924Z,650
2016-05-17T10:28:00.129Z,710
2016-05-17T10:29:00.164Z,685
2016-05-17T10:30:00.213Z,605
2016-05-17T10:31:00.247Z,630
2016-05-17T10:32:00.141Z,1475
2016-05-17T10:33:00.174Z,595
2016-05-17T10:34:00.365Z,395
2016-05-17T10:35:00.259Z,345
2016-05-17T10:36:00.307Z,345
2016-05-17T10:37:01.044Z,380
2016-05-17T10:38:00.563Z,400
2016-05-17T10:39:00.581Z,455
2016-05-17T10:40:00.459Z,505
2016-05-17T10:41:00.650Z,415
2016-05-17T10:42:00.699Z,260
2016-05-17T10:43:00.576Z,210
2016-05-17T10:44:00.626Z,225
2016-05-17T10:45:00.661Z,250
2016-05-17T10:46:00.850Z,260
2016-05-17T10:47:00.916Z,275
2016-05-17T10:48:00.934Z,295
2016-05-17T10:49:00.967Z,310
2016-05-17T10:50:01.017Z,285
2016-05-17T10:51:00.911Z,325
2016-05-17T10:52:01.086Z,310
2016-05-17T10:53:00.994Z,305
2016-05-17T10:54:01.231Z,250
2016-05-17T10:55:01.046Z,225
2016-05-17T10:56:00.940Z,205
2016-05-17T10:57:01.302Z,190
2016-05-17T10:58:01.320Z,185
2016-05-17T10:59:01.354Z,185
2016-05-17T11:00:01.232Z,215
2016-05-17T11:01:01.282Z,255
2016-05-17T11:02:01.315Z,280
2016-05-17T11:03:01.505Z,315
2016-05-17T11:04:01.382Z,300
2016-05-17T11:05:01.573Z,265
2016-05-17T11:06:01.467Z,260
2016-05-17T11:07:01.484Z,305
2016-05-17T11:08:01.690Z,440
2016-05-17T11:09:01.740Z,775
2016-05-17T11:10:01.618Z,400
2016-05-17T11:11:01.651Z,335
2016-05-17T11:12:01.529Z,300
2016-05-17T11:13:01.875Z,305
2016-05-17T11:14:01.925Z,280
2016-05-17T11:15:01.803Z,245
2016-05-17T11:16:01.836Z,240
2016-05-17T11:17:01.871Z,230
2016-05-17T11:18:02.077Z,230
2016-05-17T11:19:02.111Z,235
2016-05-17T11:20:01.848Z,240
2016-05-17T11:21:02.023Z,235
2016-05-17T11:22:02.227Z,240
2016-05-17T11:23:02.262Z,230
2016-05-17T11:24:02.125Z,195
2016-05-17T11:25:02.330Z,160
2016-05-17T11:26:02.380Z,125
2016-05-17T11:27:02.274Z,125
2016-05-17T11:28:02.463Z,170
2016-05-17T11:29:02.482Z,185
2016-05-17T11:30:02.515Z,175
2016-05-17T11:31:02.409Z,190
2016-05-17T11:32:02.599Z,195
2016-05-17T11:33:02.477Z,190
2016-05-17T11:34:02.510Z,175
2016-05-17T11:35:02.716Z,175
2016-05-17T11:36:02.579Z,180
2016-05-17T11:37:02.862Z,190
2016-05-17T11:38:02.489Z,210
2016-05-17T11:39:02.852Z,220
2016-05-17T11:40:02.901Z,245
2016-05-17T11:41:02.967Z,250
2016-05-17T11:42:03.579Z,275
2016-05-17T11:43:03.003Z,325
2016-05-17T11:44:02.881Z,385
2016-05-17T11:45:03.071Z,425
2016-05-17T11:46:03.105Z,410
2016-05-17T11:47:03.155Z,430
2016-05-17T11:48:03.173Z,490
2016-05-17T11:49:03.222Z,620
2016-05-17T11:50:02.975Z,500
2016-05-17T11:51:03.306Z,500
2016-05-17T11:52:02.949Z,545
2016-05-17T11:53:03.249Z,545
2016-05-17T11:54:03.408Z,645
2016-05-17T11:55:03.285Z,1095
2016-05-17T11:56:03.335Z,845
2016-05-17T11:57:03.541Z,1810
2016-05-17T11:58:03.402Z,1850
2016-05-17T11:59:03.610Z,1825
2016-05-17T12:00:03.472Z,1680
2016-05-17T12:01:03.692Z,1685
2016-05-17T12:02:03.570Z,910
2016-05-17T12:03:03.760Z,1405
2016-05-17T12:04:03.638Z,1775
2016-05-17T12:05:03.687Z,1660
2016-05-17T12:06:03.738Z,1215
2016-05-17T12:07:04.287Z,515
2016-05-17T12:08:03.804Z,395
2016-05-17T12:09:04.011Z,265
2016-05-17T12:10:03.748Z,190
2016-05-17T12:11:03.937Z,160
2016-05-17T12:12:04.144Z,140
2016-05-17T12:13:04.178Z,135
2016-05-17T12:14:04.118Z,140
2016-05-17T12:15:04.261Z,140
2016-05-17T12:16:04.139Z,145
2016-05-17T12:17:04.345Z,155
2016-05-17T12:18:04.081Z,160
2016-05-17T12:19:04.116Z,160
2016-05-17T12:20:05.087Z,165
2016-05-17T12:21:04.512Z,170
2016-05-17T12:22:04.561Z,170
2016-05-17T12:23:04.580Z,180
2016-05-17T12:24:04.472Z,190
2016-05-17T12:25:04.663Z,205
2016-05-17T12:26:04.400Z,210
2016-05-17T12:27:04.591Z,230
2016-05-17T12:28:04.624Z,255
2016-05-17T12:29:04.830Z,285
2016-05-17T12:30:04.708Z,320
2016-05-17T12:31:04.758Z,380
2016-05-17T12:32:04.948Z,455
2016-05-17T12:33:04.997Z,640
2016-05-17T12:34:05.016Z,655
2016-05-17T12:35:05.049Z,1650
2016-05-17T12:36:05.099Z,1710
2016-05-17T12:37:05.617Z,1730
2016-05-17T12:38:05.026Z,1080
2016-05-17T12:39:04.904Z,725
2016-05-17T12:40:04.954Z,430
2016-05-17T12:41:05.300Z,585
2016-05-17T12:42:05.334Z,860
2016-05-17T12:43:05.399Z,420
2016-05-17T12:44:05.449Z,490
2016-05-17T12:45:05.326Z,1420
2016-05-17T12:46:05.751Z,675
2016-05-17T12:47:05.567Z,1435
2016-05-17T12:48:05.584Z,1750
2016-05-17T12:49:05.633Z,580
2016-05-17T12:50:05.683Z,530
2016-05-17T12:51:05.717Z,415
2016-05-17T12:52:06.002Z,1470
2016-05-17T12:53:05.644Z,1685
2016-05-17T12:54:05.678Z,670
2016-05-17T12:55:05.885Z,435
2016-05-17T12:56:05.778Z,380
2016-05-17T12:57:05.969Z,435
2016-05-17T12:58:05.861Z,1770
2016-05-17T12:59:06.051Z,1575
2016-05-17T13:00:05.944Z,460
2016-05-17T13:01:06.151Z,445
2016-05-17T13:02:06.185Z,430
2016-05-17T13:03:06.078Z,870
2016-05-17T13:04:06.112Z,1590
2016-05-17T13:05:06.318Z,495
2016-05-17T13:06:06.352Z,375
2016-05-17T13:07:07.901Z,335
2016-05-17T13:08:06.123Z,330
2016-05-17T13:09:06.328Z,1515
2016-05-17T13:10:06.534Z,1595
2016-05-17T13:11:06.584Z,1615
2016-05-17T13:12:06.634Z,1585
2016-05-17T13:13:06.651Z,1650
2016-05-17T13:14:06.529Z,1645
2016-05-17T13:15:06.735Z,1545
2016-05-17T13:16:06.645Z,1510
2016-05-17T13:17:06.835Z,1520
2016-05-17T13:18:06.884Z,1410
2016-05-17T13:19:06.917Z,365
2016-05-17T13:20:06.952Z,295
2016-05-17T13:21:07.017Z,225
2016-05-17T13:22:07.645Z,195
2016-05-17T13:23:07.116Z,180
2016-05-17T13:24:06.838Z,160
2016-05-17T13:25:07.183Z,140
2016-05-17T13:26:07.062Z,130
2016-05-17T13:27:07.283Z,125
2016-05-17T13:28:07.317Z,110
2016-05-17T13:29:07.366Z,100
2016-05-17T13:30:07.400Z,110
2016-05-17T13:31:07.449Z,115
2016-05-17T13:32:07.327Z,115
2016-05-17T13:33:07.565Z,125
2016-05-17T13:34:07.583Z,135
2016-05-17T13:35:07.617Z,145
2016-05-17T13:36:07.479Z,155
2016-05-17T13:37:07.826Z,145
2016-05-17T13:38:07.579Z,140
2016-05-17T13:39:07.456Z,135
2016-05-17T13:40:07.818Z,125
2016-05-17T13:41:07.852Z,110
2016-05-17T13:42:07.887Z,105
2016-05-17T13:43:07.764Z,100
2016-05-17T13:44:07.970Z,100
2016-05-17T13:45:08.020Z,100
2016-05-17T13:46:07.912Z,105
2016-05-17T13:47:07.946Z,105
2016-05-17T13:48:08.121Z,115
2016-05-17T13:49:08.171Z,125
2016-05-17T13:50:08.064Z,140
2016-05-17T13:51:08.254Z,150
2016-05-17T13:52:08.288Z,155
2016-05-17T13:53:08.337Z,160
2016-05-17T13:54:08.215Z,165
2016-05-17T13:55:08.250Z,180
2016-05-17T13:56:08.455Z,190
2016-05-17T13:57:08.317Z,200
2016-05-17T13:58:08.522Z,210
2016-05-17T13:59:08.542Z,215
2016-05-17T14:00:08.606Z,220
2016-05-17T14:01:08.640Z,225
2016-05-17T14:02:08.518Z,275
2016-05-17T14:03:08.693Z,245
2016-05-17T14:04:08.633Z,260
2016-05-17T14:05:08.776Z,275
2016-05-17T14:06:08.654Z,285